Time;durP1;ratioP1;P1;durP2;ratioP2;P2;SDS_P1;SDS_P2;PMS_P1;PMS_P2;Temp;Humidity;BMP_temperature;BMP_pressure;BME280_temperature;BME280_humidity;BME280_pressure;Samples;Min_cycle;Max_cycle;Signal;HPM_P1;HPM_P2
2023/09/26 00:01:52;;;;;;;6.28;3.35;;;;;;;;;;4941272;29;20039;-79
2023/09/26 00:04:17;;;;;;;7.38;3.58;;;;;;;;;;4924003;29;20031;-80
2023/09/26 00:06:44;;;;;;;5.47;3.47;;;;;;;;;;4940804;29;20175;-77
2023/09/26 00:09:10;;;;;;;7.30;3.38;;;;;;;;;;4944424;29;20042;-78
2023/09/26 00:11:35;;;;;;;6.18;3.72;;;;;;;;;;4954490;28;20115;-79
2023/09/26 00:14:01;;;;;;;6.05;3.15;;;;;;;;;;4908844;29;20031;-79
2023/09/26 00:16:27;;;;;;;6.38;3.40;;;;;;;;;;4927409;29;20050;-79
2023/09/26 00:18:55;;;;;;;5.47;3.50;;;;;;;;;;4944267;29;20034;-78
2023/09/26 00:21:20;;;;;;;5.35;3.55;;;;;;;;;;4945352;29;20495;-78
2023/09/26 00:23:46;;;;;;;5.47;3.50;;;;;;;;;;4924014;29;20495;-79
2023/09/26 00:26:11;;;;;;;6.68;3.80;;;;;;;;;;4963855;28;20410;-79
2023/09/26 00:28:43;;;;;;;13.05;3.97;;;;;;;;;;4945203;29;20064;-79
2023/09/26 00:31:08;;;;;;;5.00;3.60;;;;;;;;;;4945205;29;20047;-79
2023/09/26 00:33:34;;;;;;;6.38;3.75;;;;;;;;;;4945793;29;20040;-79
2023/09/26 00:36:08;;;;;;;5.75;3.35;;;;;;;;;;4930040;29;20051;-78
2023/09/26 00:38:34;;;;;;;6.38;3.22;;;;;;;;;;4942252;29;20035;-77
2023/09/26 00:41:00;;;;;;;7.72;3.38;;;;;;;;;;4921873;29;20494;-78
2023/09/26 00:43:25;;;;;;;6.43;3.58;;;;;;;;;;4909446;29;20032;-79
2023/09/26 00:45:53;;;;;;;7.03;3.83;;;;;;;;;;4924969;29;20063;-79
2023/09/26 00:48:19;;;;;;;5.90;3.67;;;;;;;;;;4922294;29;20036;-77
2023/09/26 00:50:48;;;;;;;5.70;3.20;;;;;;;;;;4919811;29;20071;-79
2023/09/26 00:53:14;;;;;;;6.45;3.55;;;;;;;;;;4908865;29;20043;-78
2023/09/26 00:55:39;;;;;;;5.55;3.13;;;;;;;;;;4926983;29;20036;-78
2023/09/26 00:58:05;;;;;;;6.22;3.00;;;;;;;;;;4927377;29;20035;-79
2023/09/26 01:00:32;;;;;;;6.82;3.13;;;;;;;;;;4961028;29;20178;-79
2023/09/26 01:02:58;;;;;;;7.30;3.90;;;;;;;;;;4938446;29;20558;-79
2023/09/26 01:05:24;;;;;;;5.75;3.17;;;;;;;;;;4949940;29;20028;-78
2023/09/26 01:07:51;;;;;;;6.43;3.15;;;;;;;;;;4954812;28;20038;-78
2023/09/26 01:10:17;;;;;;;4.72;3.20;;;;;;;;;;4959145;29;20047;-79
2023/09/26 01:12:43;;;;;;;7.03;3.63;;;;;;;;;;4937511;29;20142;-80
2023/09/26 01:15:11;;;;;;;4.72;2.92;;;;;;;;;;4910743;29;20047;-77
2023/09/26 01:17:43;;;;;;;5.65;3.55;;;;;;;;;;4937002;29;20063;-79
2023/09/26 01:20:16;;;;;;;5.82;3.42;;;;;;;;;;4937910;29;20059;-78
2023/09/26 01:22:44;;;;;;;4.70;3.30;;;;;;;;;;4935637;29;20064;-78
2023/09/26 01:25:10;;;;;;;6.37;3.93;;;;;;;;;;4925270;29;20024;-78
2023/09/26 01:27:36;;;;;;;7.03;3.15;;;;;;;;;;4920783;29;20032;-79
2023/09/26 01:30:01;;;;;;;7.75;3.80;;;;;;;;;;4916922;29;20099;-79
2023/09/26 01:32:28;;;;;;;7.00;3.22;;;;;;;;;;4944882;29;20059;-79
2023/09/26 01:34:54;;;;;;;5.13;3.28;;;;;;;;;;4959434;29;20068;-79
2023/09/26 01:37:20;;;;;;;5.40;3.45;;;;;;;;;;4939143;29;20036;-79
2023/09/26 01:39:46;;;;;;;7.85;3.58;;;;;;;;;;4935121;29;20607;-77
2023/09/26 01:42:11;;;;;;;7.68;3.17;;;;;;;;;;4936404;29;20028;-78
2023/09/26 01:44:37;;;;;;;5.05;3.58;;;;;;;;;;4921014;29;20067;-78
2023/09/26 01:47:03;;;;;;;9.20;4.13;;;;;;;;;;4921363;29;20035;-78
2023/09/26 01:49:34;;;;;;;5.93;3.17;;;;;;;;;;4920949;29;20036;-78
2023/09/26 01:51:59;;;;;;;6.60;4.03;;;;;;;;;;4936752;29;20035;-78
2023/09/26 01:54:25;;;;;;;5.78;3.70;;;;;;;;;;4921623;29;20032;-78
2023/09/26 01:56:51;;;;;;;6.30;3.17;;;;;;;;;;4938828;29;20460;-79
2023/09/26 01:59:16;;;;;;;6.72;3.97;;;;;;;;;;4945010;29;20032;-79
2023/09/26 02:01:44;;;;;;;7.85;4.05;;;;;;;;;;4943814;29;20443;-78
2023/09/26 02:04:10;;;;;;;5.27;3.37;;;;;;;;;;4924934;29;20063;-78
2023/09/26 02:06:39;;;;;;;7.90;4.10;;;;;;;;;;4946388;29;20042;-78
2023/09/26 02:09:04;;;;;;;10.63;4.32;;;;;;;;;;4950702;29;20480;-78
2023/09/26 02:11:30;;;;;;;7.10;4.03;;;;;;;;;;4947831;29;20036;-78
2023/09/26 02:13:59;;;;;;;7.35;4.07;;;;;;;;;;4928743;29;20116;-78
2023/09/26 02:16:28;;;;;;;8.35;4.05;;;;;;;;;;4929638;29;20071;-78
2023/09/26 02:18:53;;;;;;;6.03;3.90;;;;;;;;;;4929253;29;20032;-78
2023/09/26 02:21:20;;;;;;;6.45;3.97;;;;;;;;;;4927058;29;20034;-78
2023/09/26 02:23:45;;;;;;;7.03;4.03;;;;;;;;;;4924620;29;20035;-78
2023/09/26 02:26:17;;;;;;;10.88;4.75;;;;;;;;;;4944201;29;20031;-79
2023/09/26 02:28:43;;;;;;;9.60;4.47;;;;;;;;;;4927962;29;20051;-78
2023/09/26 02:31:13;;;;;;;7.13;4.20;;;;;;;;;;4943184;29;20203;-79
2023/09/26 02:33:39;;;;;;;8.07;4.13;;;;;;;;;;4928834;29;20046;-78
2023/09/26 02:36:05;;;;;;;5.50;3.75;;;;;;;;;;4945790;29;20403;-78
2023/09/26 02:38:31;;;;;;;7.35;4.50;;;;;;;;;;4963412;28;20046;-78
2023/09/26 02:40:58;;;;;;;10.45;3.83;;;;;;;;;;4966086;28;20063;-78
2023/09/26 02:43:23;;;;;;;6.05;4.30;;;;;;;;;;4947271;29;20035;-78
2023/09/26 02:45:49;;;;;;;10.82;6.97;;;;;;;;;;4932836;29;20042;-78
2023/09/26 02:48:15;;;;;;;7.05;4.80;;;;;;;;;;4948311;29;20116;-78
2023/09/26 02:50:40;;;;;;;6.20;3.97;;;;;;;;;;4952830;29;20106;-78
2023/09/26 02:53:07;;;;;;;6.38;4.03;;;;;;;;;;4937144;29;20035;-79
2023/09/26 02:55:32;;;;;;;6.78;4.72;;;;;;;;;;4922852;29;20043;-79
2023/09/26 02:57:58;;;;;;;11.82;7.50;;;;;;;;;;4923350;29;20036;-78
2023/09/26 03:00:24;;;;;;;9.98;4.57;;;;;;;;;;4920967;29;20477;-78
2023/09/26 03:02:50;;;;;;;6.68;3.80;;;;;;;;;;4934838;29;20044;-78
2023/09/26 03:05:16;;;;;;;8.70;4.43;;;;;;;;;;4938649;29;20171;-78
2023/09/26 03:07:42;;;;;;;6.90;4.00;;;;;;;;;;4943414;29;20036;-78
2023/09/26 03:10:08;;;;;;;8.55;4.32;;;;;;;;;;4945611;29;20046;-80
2023/09/26 03:12:33;;;;;;;6.93;4.40;;;;;;;;;;4950408;29;20031;-79
2023/09/26 03:14:59;;;;;;;10.05;4.38;;;;;;;;;;4931748;29;20043;-78
2023/09/26 03:17:25;;;;;;;9.63;4.50;;;;;;;;;;4946122;29;20055;-77
2023/09/26 03:19:50;;;;;;;8.38;4.50;;;;;;;;;;4929396;29;20095;-79
2023/09/26 03:22:17;;;;;;;7.53;4.55;;;;;;;;;;4942264;29;20043;-78
2023/09/26 03:24:42;;;;;;;17.83;8.57;;;;;;;;;;4939623;29;20039;-77
2023/09/26 03:27:08;;;;;;;11.35;6.60;;;;;;;;;;4939125;29;20081;-78
2023/09/26 03:29:34;;;;;;;8.35;4.45;;;;;;;;;;4926680;29;20035;-77
2023/09/26 03:32:00;;;;;;;8.63;5.00;;;;;;;;;;4941382;29;20027;-79
2023/09/26 03:34:25;;;;;;;8.45;4.85;;;;;;;;;;4924231;29;20032;-79
2023/09/26 03:36:52;;;;;;;9.80;5.05;;;;;;;;;;4941377;29;20028;-79
2023/09/26 03:39:18;;;;;;;8.80;5.10;;;;;;;;;;4945419;29;20087;-80
2023/09/26 03:41:45;;;;;;;8.10;4.50;;;;;;;;;;4944616;29;20028;-79
2023/09/26 03:44:10;;;;;;;7.30;4.60;;;;;;;;;;4942810;29;20095;-79
2023/09/26 03:46:36;;;;;;;9.05;4.78;;;;;;;;;;4944235;29;20028;-79
2023/09/26 03:49:02;;;;;;;7.78;4.75;;;;;;;;;;4926253;29;20047;-79
2023/09/26 03:51:28;;;;;;;9.45;4.90;;;;;;;;;;4940142;29;20039;-78
2023/09/26 03:53:55;;;;;;;6.30;4.50;;;;;;;;;;4923688;29;20054;-79
2023/09/26 03:56:21;;;;;;;9.32;5.40;;;;;;;;;;4923659;29;20039;-79
2023/09/26 03:58:48;;;;;;;14.93;8.32;;;;;;;;;;4923528;29;20031;-79
2023/09/26 04:01:15;;;;;;;14.70;6.63;;;;;;;;;;4935339;29;20084;-79
2023/09/26 04:03:43;;;;;;;9.23;5.78;;;;;;;;;;4907527;29;20039;-79
2023/09/26 04:06:10;;;;;;;11.70;5.15;;;;;;;;;;4939558;29;20100;-78
2023/09/26 04:08:36;;;;;;;7.40;4.47;;;;;;;;;;4923497;23;20140;-80
2023/09/26 04:11:02;;;;;;;11.52;6.22;;;;;;;;;;4980993;28;20030;-80
2023/09/26 04:13:30;;;;;;;8.73;5.88;;;;;;;;;;4992560;28;20038;-81
2023/09/26 04:15:56;;;;;;;11.90;7.50;;;;;;;;;;4962472;28;20027;-80
2023/09/26 04:18:22;;;;;;;9.25;5.95;;;;;;;;;;4979780;28;20058;-79
2023/09/26 04:20:52;;;;;;;12.23;5.68;;;;;;;;;;4947273;28;20066;-79
2023/09/26 04:23:17;;;;;;;11.13;5.63;;;;;;;;;;4980458;28;20071;-80
2023/09/26 04:25:43;;;;;;;13.75;6.75;;;;;;;;;;4962245;28;20057;-81
2023/09/26 04:28:10;;;;;;;10.32;5.70;;;;;;;;;;4971999;28;20039;-80
2023/09/26 04:30:39;;;;;;;13.07;6.72;;;;;;;;;;4945984;28;20495;-79
2023/09/26 04:33:05;;;;;;;;;;;;;;;;;;4945860;28;20055;-79
2023/09/26 04:35:30;;;;;;;9.90;5.32;;;;;;;;;;4977614;28;20293;-81
2023/09/26 04:37:56;;;;;;;12.18;5.28;;;;;;;;;;4978622;28;20093;-81
2023/09/26 04:40:21;;;;;;;9.60;5.68;;;;;;;;;;4930762;28;20542;-81
2023/09/26 04:42:50;;;;;;;8.65;5.22;;;;;;;;;;4980153;28;20023;-80
2023/09/26 04:45:16;;;;;;;11.23;5.63;;;;;;;;;;4962875;28;20039;-81
2023/09/26 04:47:41;;;;;;;8.18;4.55;;;;;;;;;;4977383;28;20094;-80
2023/09/26 04:50:10;;;;;;;9.43;5.38;;;;;;;;;;4966099;28;20038;-80
2023/09/26 04:52:36;;;;;;;12.00;5.03;;;;;;;;;;4961431;28;20490;-81
2023/09/26 04:55:01;;;;;;;7.82;4.53;;;;;;;;;;4961052;28;20030;-81
2023/09/26 04:57:27;;;;;;;10.98;5.53;;;;;;;;;;4978139;28;20039;-81
2023/09/26 04:59:53;;;;;;;10.27;5.60;;;;;;;;;;4962347;28;20094;-81
2023/09/26 05:02:18;;;;;;;10.27;5.35;;;;;;;;;;4963388;28;20299;-81
2023/09/26 05:04:48;;;;;;;10.30;5.88;;;;;;;;;;4972782;28;20035;-80
2023/09/26 05:07:13;;;;;;;9.73;5.53;;;;;;;;;;4957998;28;20043;-80
2023/09/26 05:09:39;;;;;;;9.82;5.97;;;;;;;;;;4957826;28;20055;-79
2023/09/26 05:12:05;;;;;;;10.68;6.10;;;;;;;;;;4958517;28;20043;-81
2023/09/26 05:14:30;;;;;;;10.65;6.40;;;;;;;;;;4959640;28;20043;-81
2023/09/26 05:16:55;;;;;;;11.63;6.35;;;;;;;;;;4978499;28;20520;-81
2023/09/26 05:19:21;;;;;;;14.57;6.53;;;;;;;;;;4960357;29;20124;-79
2023/09/26 05:21:46;;;;;;;13.38;7.15;;;;;;;;;;4937505;28;20034;-80
2023/09/26 05:24:12;;;;;;;9.85;5.90;;;;;;;;;;4970867;28;20035;-78
2023/09/26 05:26:38;;;;;;;12.80;5.38;;;;;;;;;;4971848;28;20031;-80
2023/09/26 05:29:03;;;;;;;9.27;6.50;;;;;;;;;;4986281;28;20031;-80
2023/09/26 05:31:30;;;;;;;11.55;6.82;;;;;;;;;;4951266;28;20042;-78
2023/09/26 05:33:57;;;;;;;7.95;5.22;;;;;;;;;;4964422;28;20094;-80
2023/09/26 05:36:23;;;;;;;9.20;5.60;;;;;;;;;;4961480;28;20061;-79
2023/09/26 05:38:48;;;;;;;11.55;6.13;;;;;;;;;;4956717;28;20436;-81
2023/09/26 05:41:17;;;;;;;9.30;5.07;;;;;;;;;;4975724;28;20034;-80
2023/09/26 05:43:43;;;;;;;11.25;6.38;;;;;;;;;;4978506;28;20497;-81
2023/09/26 05:46:08;;;;;;;11.43;6.55;;;;;;;;;;4962502;28;20053;-80
2023/09/26 05:48:34;;;;;;;12.23;6.68;;;;;;;;;;4979205;28;20030;-79
2023/09/26 05:51:00;;;;;;;20.88;8.25;;;;;;;;;;4979785;28;20026;-80
2023/09/26 05:53:26;;;;;;;22.08;6.90;;;;;;;;;;4980283;28;20027;-81
2023/09/26 05:55:52;;;;;;;18.98;6.68;;;;;;;;;;4978779;28;20394;-80
2023/09/26 05:58:20;;;;;;;17.40;8.05;;;;;;;;;;4979611;28;20031;-80
2023/09/26 06:00:46;;;;;;;12.75;7.15;;;;;;;;;;4949340;28;20073;-80
2023/09/26 06:03:15;;;;;;;14.73;6.70;;;;;;;;;;4964783;28;20416;-80
2023/09/26 06:05:41;;;;;;;11.95;6.05;;;;;;;;;;4981042;28;20035;-81
2023/09/26 06:08:06;;;;;;;10.30;5.95;;;;;;;;;;4965165;28;20038;-80
2023/09/26 06:10:32;;;;;;;13.35;7.15;;;;;;;;;;4983471;28;20038;-81
2023/09/26 06:12:57;;;;;;;14.15;7.95;;;;;;;;;;4970041;28;20042;-79
2023/09/26 06:15:23;;;;;;;13.27;6.38;;;;;;;;;;4962345;29;20042;-81
2023/09/26 06:17:59;;;;;;;15.80;9.00;;;;;;;;;;4961248;28;20153;-79
2023/09/26 06:20:26;;;;;;;19.38;12.00;;;;;;;;;;4959556;28;20038;-79
2023/09/26 06:22:51;;;;;;;12.63;6.70;;;;;;;;;;4959526;28;20031;-78
2023/09/26 06:25:17;;;;;;;9.73;6.05;;;;;;;;;;4960427;28;20115;-79
2023/09/26 06:27:42;;;;;;;17.70;7.22;;;;;;;;;;4960104;28;20031;-78
2023/09/26 06:30:10;;;;;;;9.30;6.30;;;;;;;;;;4963101;28;20049;-79
2023/09/26 06:32:37;;;;;;;11.20;6.90;;;;;;;;;;4976599;28;20027;-80
2023/09/26 06:35:02;;;;;;;11.13;6.85;;;;;;;;;;4962612;28;20146;-79
2023/09/26 06:37:28;;;;;;;13.85;6.80;;;;;;;;;;4978658;28;20066;-80
2023/09/26 06:39:55;;;;;;;19.85;9.65;;;;;;;;;;4990235;28;20031;-80
2023/09/26 06:42:21;;;;;;;14.82;8.50;;;;;;;;;;4978945;28;20038;-79
2023/09/26 06:44:48;;;;;;;10.05;5.95;;;;;;;;;;4971207;28;20057;-79
2023/09/26 06:47:13;;;;;;;12.07;6.80;;;;;;;;;;4983018;28;20030;-80
2023/09/26 06:49:39;;;;;;;12.07;6.25;;;;;;;;;;4959853;28;20027;-80
2023/09/26 06:52:04;;;;;;;10.07;5.88;;;;;;;;;;4979955;28;20038;-79
2023/09/26 06:54:31;;;;;;;7.55;5.70;;;;;;;;;;4980645;28;20092;-80
2023/09/26 06:56:56;;;;;;;8.60;5.60;;;;;;;;;;4978159;28;20023;-81
2023/09/26 06:59:22;;;;;;;13.43;6.55;;;;;;;;;;4978026;28;20045;-79
2023/09/26 07:01:47;;;;;;;10.85;5.47;;;;;;;;;;4979240;28;20085;-80
2023/09/26 07:04:14;;;;;;;8.95;5.65;;;;;;;;;;4978509;28;20034;-79
2023/09/26 07:06:45;;;;;;;9.95;6.05;;;;;;;;;;4970791;28;20027;-80
2023/09/26 07:09:12;;;;;;;12.50;6.00;;;;;;;;;;4944152;29;20484;-79
2023/09/26 07:11:41;;;;;;;11.52;5.88;;;;;;;;;;4960361;28;20526;-80
2023/09/26 07:14:07;;;;;;;10.07;6.38;;;;;;;;;;4945370;29;20098;-80
2023/09/26 07:16:33;;;;;;;12.07;6.88;;;;;;;;;;4959673;28;20038;-79
2023/09/26 07:18:59;;;;;;;15.27;9.05;;;;;;;;;;4945307;28;20043;-80
2023/09/26 07:21:25;;;;;;;12.77;6.72;;;;;;;;;;4947464;29;20034;-79
2023/09/26 07:23:51;;;;;;;11.80;6.60;;;;;;;;;;4962426;28;20031;-80
2023/09/26 07:26:17;;;;;;;12.05;7.35;;;;;;;;;;4965950;28;20062;-79
2023/09/26 07:28:46;;;;;;;14.95;9.15;;;;;;;;;;4961301;28;20035;-80
2023/09/26 07:31:13;;;;;;;12.13;7.22;;;;;;;;;;4978856;28;20109;-78
2023/09/26 07:33:39;;;;;;;8.93;6.57;;;;;;;;;;4979174;28;20538;-80
2023/09/26 07:36:06;;;;;;;12.65;6.13;;;;;;;;;;4983208;28;20042;-81
2023/09/26 07:38:32;;;;;;;11.68;6.85;;;;;;;;;;4983205;28;20073;-81
2023/09/26 07:40:58;;;;;;;10.30;6.25;;;;;;;;;;4995896;28;20027;-79
2023/09/26 07:43:29;;;;;;;10.07;6.22;;;;;;;;;;4982077;28;20035;-79
2023/09/26 07:46:00;;;;;;;10.95;6.22;;;;;;;;;;4980319;28;20042;-80
2023/09/26 07:48:26;;;;;;;12.32;6.50;;;;;;;;;;4993664;28;20046;-79
2023/09/26 07:50:52;;;;;;;9.00;6.32;;;;;;;;;;4977949;28;20027;-80
2023/09/26 07:53:17;;;;;;;11.07;6.22;;;;;;;;;;4974984;28;20027;-81
2023/09/26 07:55:43;;;;;;;11.40;6.47;;;;;;;;;;4984359;28;20125;-80
2023/09/26 07:58:08;;;;;;;9.35;6.18;;;;;;;;;;4977938;28;20041;-81
2023/09/26 08:00:34;;;;;;;14.75;6.25;;;;;;;;;;4960089;29;20031;-78
2023/09/26 08:03:00;;;;;;;12.50;6.15;;;;;;;;;;4961303;28;20480;-78
2023/09/26 08:05:26;;;;;;;9.48;5.90;;;;;;;;;;4962142;28;20039;-81
2023/09/26 08:07:52;;;;;;;10.18;6.10;;;;;;;;;;4976061;28;20045;-78
2023/09/26 08:10:17;;;;;;;10.45;6.22;;;;;;;;;;4984896;28;20034;-80
2023/09/26 08:12:43;;;;;;;12.52;6.68;;;;;;;;;;4970125;28;20046;-79
2023/09/26 08:15:09;;;;;;;7.93;5.28;;;;;;;;;;4991189;28;20079;-79
2023/09/26 08:17:34;;;;;;;8.75;5.13;;;;;;;;;;4991956;28;20034;-79
2023/09/26 08:20:00;;;;;;;7.05;5.05;;;;;;;;;;4985665;28;20321;-78
2023/09/26 08:22:26;;;;;;;10.77;5.25;;;;;;;;;;4951314;28;20038;-79
2023/09/26 08:24:52;;;;;;;7.57;5.20;;;;;;;;;;4976473;28;20022;-79
2023/09/26 08:27:17;;;;;;;7.70;4.85;;;;;;;;;;4958440;28;20037;-79
2023/09/26 08:29:43;;;;;;;10.38;5.57;;;;;;;;;;4958627;28;20391;-78
2023/09/26 08:32:11;;;;;;;10.77;4.88;;;;;;;;;;4974958;28;20031;-78
2023/09/26 08:34:37;;;;;;;11.10;4.95;;;;;;;;;;4974289;28;20085;-79
2023/09/26 08:37:02;;;;;;;7.15;5.07;;;;;;;;;;4975395;28;20661;-80
2023/09/26 08:39:28;;;;;;;8.32;5.43;;;;;;;;;;4956374;28;20033;-79
2023/09/26 08:41:54;;;;;;;11.02;4.95;;;;;;;;;;4974109;28;20051;-78
2023/09/26 08:44:19;;;;;;;12.85;5.30;;;;;;;;;;4975401;28;20038;-79
2023/09/26 08:46:45;;;;;;;7.82;5.35;;;;;;;;;;4974784;28;20143;-80
2023/09/26 08:49:11;;;;;;;11.07;5.72;;;;;;;;;;4959340;28;20097;-79
2023/09/26 08:51:36;;;;;;;11.35;7.05;;;;;;;;;;4974989;28;20602;-78
2023/09/26 08:54:02;;;;;;;9.82;6.30;;;;;;;;;;4943476;28;20038;-78
2023/09/26 08:56:28;;;;;;;11.40;6.18;;;;;;;;;;4974571;28;20105;-80
2023/09/26 08:58:54;;;;;;;9.50;5.47;;;;;;;;;;4955733;28;20533;-78
2023/09/26 09:01:20;;;;;;;12.02;5.40;;;;;;;;;;4976877;28;20046;-78
2023/09/26 09:03:46;;;;;;;10.68;5.68;;;;;;;;;;4977497;28;20387;-78
2023/09/26 09:06:12;;;;;;;12.65;5.32;;;;;;;;;;4975268;28;20054;-79
2023/09/26 09:08:38;;;;;;;8.65;5.35;;;;;;;;;;4976514;28;20046;-79
2023/09/26 09:11:07;;;;;;;14.45;6.13;;;;;;;;;;4976099;28;20045;-78
2023/09/26 09:13:33;;;;;;;11.52;5.85;;;;;;;;;;4974662;28;20043;-78
2023/09/26 09:16:20;;;;;;;10.00;5.38;;;;;;;;;;4968199;28;20030;-78
2023/09/26 09:18:50;;;;;;;10.10;5.68;;;;;;;;;;4979760;28;20030;-79
2023/09/26 09:21:19;;;;;;;13.05;5.75;;;;;;;;;;4981736;28;20023;-79
2023/09/26 09:23:49;;;;;;;7.82;5.20;;;;;;;;;;4980656;28;20483;-77
2023/09/26 09:26:14;;;;;;;11.23;6.45;;;;;;;;;;4963092;28;20046;-79
2023/09/26 09:28:40;;;;;;;10.93;5.60;;;;;;;;;;4962771;28;20458;-79
2023/09/26 09:31:05;;;;;;;8.02;5.45;;;;;;;;;;4976783;28;20027;-79
2023/09/26 09:33:35;;;;;;;16.48;5.85;;;;;;;;;;4979050;28;20066;-78
2023/09/26 09:36:01;;;;;;;12.63;5.68;;;;;;;;;;4979773;28;20042;-78
2023/09/26 09:38:31;;;;;;;8.23;4.72;;;;;;;;;;4978879;28;20035;-78
2023/09/26 09:40:56;;;;;;;8.93;5.57;;;;;;;;;;4980139;28;20030;-78
2023/09/26 09:43:22;;;;;;;11.20;6.45;;;;;;;;;;4981153;28;20031;-79
2023/09/26 09:45:47;;;;;;;13.68;5.38;;;;;;;;;;4965176;28;20050;-79
2023/09/26 09:48:14;;;;;;;11.95;4.70;;;;;;;;;;4981623;28;20104;-79
2023/09/26 09:50:44;;;;;;;9.82;5.95;;;;;;;;;;4961336;28;20050;-80
2023/09/26 09:53:13;;;;;;;11.57;5.23;;;;;;;;;;4979958;28;20054;-79
2023/09/26 09:55:41;;;;;;;12.35;7.40;;;;;;;;;;4981653;28;20039;-77
2023/09/26 09:58:09;;;;;;;14.60;5.53;;;;;;;;;;4981854;28;20065;-79
2023/09/26 10:00:40;;;;;;;10.32;5.13;;;;;;;;;;4981559;28;20031;-81
2023/09/26 10:03:06;;;;;;;7.47;5.22;;;;;;;;;;4982077;28;20031;-80
2023/09/26 10:05:31;;;;;;;10.90;5.03;;;;;;;;;;4963495;28;20039;-79
2023/09/26 10:07:57;;;;;;;11.88;4.90;;;;;;;;;;4973461;28;20035;-80
2023/09/26 10:10:24;;;;;;;11.82;4.97;;;;;;;;;;4978832;28;20065;-78
2023/09/26 10:12:51;;;;;;;8.52;4.30;;;;;;;;;;4962225;28;20039;-79
2023/09/26 10:15:17;;;;;;;9.35;4.40;;;;;;;;;;4977529;28;20102;-81
2023/09/26 10:17:48;;;;;;;9.35;4.25;;;;;;;;;;4978071;28;20066;-80
2023/09/26 10:20:14;;;;;;;8.75;4.75;;;;;;;;;;4962816;28;20110;-80
2023/09/26 10:22:43;;;;;;;9.45;4.95;;;;;;;;;;4977862;28;20035;-80
2023/09/26 10:25:19;;;;;;;7.53;3.88;;;;;;;;;;4970860;28;20114;-81
2023/09/26 10:27:50;;;;;;;6.65;3.80;;;;;;;;;;4974955;28;20223;-79
2023/09/26 10:30:18;;;;;;;8.02;4.47;;;;;;;;;;4979520;28;20042;-80
2023/09/26 10:32:44;;;;;;;10.35;4.50;;;;;;;;;;4981233;28;20178;-80
2023/09/26 10:35:12;;;;;;;6.47;4.25;;;;;;;;;;4959154;28;20107;-79
2023/09/26 10:37:38;;;;;;;10.43;3.90;;;;;;;;;;4944323;29;20092;-80
2023/09/26 10:40:04;;;;;;;8.40;3.88;;;;;;;;;;4942779;28;20031;-80
2023/09/26 10:42:32;;;;;;;7.18;3.65;;;;;;;;;;4960328;28;20027;-80
2023/09/26 10:44:58;;;;;;;8.73;3.83;;;;;;;;;;4960251;28;20042;-81
2023/09/26 10:47:24;;;;;;;10.52;5.20;;;;;;;;;;4943601;29;20038;-80
2023/09/26 10:49:50;;;;;;;9.98;3.78;;;;;;;;;;4942328;29;20491;-80
2023/09/26 10:52:16;;;;;;;9.50;3.90;;;;;;;;;;4943629;28;20027;-80
2023/09/26 10:54:42;;;;;;;9.98;4.60;;;;;;;;;;4993407;28;20031;-81
2023/09/26 10:57:23;;;;;;;11.00;4.70;;;;;;;;;;4982476;28;20054;-81
2023/09/26 10:59:51;;;;;;;8.32;4.13;;;;;;;;;;4982959;28;20039;-81
2023/09/26 11:02:17;;;;;;;;;;;;;;;;;;4982601;28;20065;-80
2023/09/26 11:04:43;;;;;;;11.02;3.95;;;;;;;;;;4979064;28;19997;-80
2023/09/26 11:07:09;;;;;;;9.25;4.68;;;;;;;;;;4979593;28;20027;-79
2023/09/26 11:09:39;;;;;;;9.13;3.95;;;;;;;;;;4973087;28;20126;-80
2023/09/26 11:12:05;;;;;;;9.52;3.90;;;;;;;;;;4970328;28;20071;-82
2023/09/26 11:14:32;;;;;;;10.93;3.85;;;;;;;;;;4922351;29;20419;-80
2023/09/26 11:16:57;;;;;;;6.88;3.58;;;;;;;;;;4975398;28;20035;-82
2023/09/26 11:19:24;;;;;;;8.38;3.53;;;;;;;;;;4958857;28;20038;-81
2023/09/26 11:21:52;;;;;;;7.93;3.92;;;;;;;;;;4942662;29;20035;-78
2023/09/26 11:24:20;;;;;;;7.88;3.58;;;;;;;;;;4941595;29;20067;-80
2023/09/26 11:26:48;;;;;;;12.88;5.13;;;;;;;;;;4973343;28;20078;-80
2023/09/26 11:29:14;;;;;;;;;;;;;;;;;;4960660;28;20039;-80
2023/09/26 11:31:39;;;;;;;7.90;3.72;;;;;;;;;;4958058;29;19910;-80
2023/09/26 11:34:05;;;;;;;6.38;3.33;;;;;;;;;;4957933;28;20032;-80
2023/09/26 11:36:31;;;;;;;11.40;4.32;;;;;;;;;;4959668;28;20094;-81
2023/09/26 11:38:59;;;;;;;10.98;4.65;;;;;;;;;;4959662;28;20045;-79
2023/09/26 11:41:24;;;;;;;8.15;4.30;;;;;;;;;;4969010;28;20022;-81
2023/09/26 11:43:52;;;;;;;6.65;3.40;;;;;;;;;;4971884;28;20171;-79
2023/09/26 11:46:18;;;;;;;11.43;3.97;;;;;;;;;;4969359;28;20050;-80
2023/09/26 11:48:45;;;;;;;10.10;4.50;;;;;;;;;;4983121;28;20026;-81
2023/09/26 11:51:12;;;;;;;8.82;3.63;;;;;;;;;;4971769;28;20038;-81
2023/09/26 11:53:39;;;;;;;7.13;4.30;;;;;;;;;;4989220;28;20038;-79
2023/09/26 11:56:05;;;;;;;7.88;3.30;;;;;;;;;;4981222;28;20039;-80
2023/09/26 11:58:31;;;;;;;11.07;3.72;;;;;;;;;;4987297;28;20046;-80
2023/09/26 12:00:57;;;;;;;6.13;3.85;;;;;;;;;;4991780;28;20090;-80
2023/09/26 12:03:23;;;;;;;6.95;3.63;;;;;;;;;;4974288;28;20189;-80
2023/09/26 12:05:49;;;;;;;8.80;3.55;;;;;;;;;;4967317;28;20053;-81
2023/09/26 12:08:14;;;;;;;11.18;3.15;;;;;;;;;;4972508;28;20473;-80
2023/09/26 12:10:40;;;;;;;11.50;3.88;;;;;;;;;;4980987;28;20057;-80
2023/09/26 12:13:06;;;;;;;6.63;3.35;;;;;;;;;;4976348;28;20534;-78
2023/09/26 12:15:32;;;;;;;8.00;3.88;;;;;;;;;;4975965;28;20031;-80
2023/09/26 12:17:59;;;;;;;7.65;3.80;;;;;;;;;;4975617;28;20038;-79
2023/09/26 12:20:24;;;;;;;15.18;4.70;;;;;;;;;;4977053;28;20037;-79
2023/09/26 12:22:54;;;;;;;8.82;3.60;;;;;;;;;;4976181;28;20109;-80
2023/09/26 12:25:22;;;;;;;10.73;3.40;;;;;;;;;;4977271;28;20034;-79
2023/09/26 12:27:48;;;;;;;7.05;3.58;;;;;;;;;;4944798;28;20026;-80
2023/09/26 12:30:14;;;;;;;8.25;3.70;;;;;;;;;;4981737;28;20085;-80
2023/09/26 12:32:43;;;;;;;9.45;4.03;;;;;;;;;;4992809;28;20113;-82
2023/09/26 12:35:08;;;;;;;8.38;4.00;;;;;;;;;;4988993;28;20070;-82
2023/09/26 12:37:35;;;;;;;9.18;3.53;;;;;;;;;;4978156;28;20027;-81
2023/09/26 12:40:13;;;;;;;7.15;3.53;;;;;;;;;;4979046;28;20046;-82
2023/09/26 12:42:40;;;;;;;10.35;3.50;;;;;;;;;;4975925;28;20030;-81
2023/09/26 12:45:06;;;;;;;9.45;4.68;;;;;;;;;;4975264;28;20026;-79
2023/09/26 12:47:32;;;;;;;7.97;4.03;;;;;;;;;;4960626;28;20070;-81
2023/09/26 12:50:00;;;;;;;8.27;3.80;;;;;;;;;;4976679;28;20035;-81
2023/09/26 12:52:28;;;;;;;9.20;4.15;;;;;;;;;;4981566;28;20026;-81
2023/09/26 12:54:54;;;;;;;6.75;3.90;;;;;;;;;;4984725;28;20138;-80
2023/09/26 12:57:20;;;;;;;8.27;3.75;;;;;;;;;;4980916;28;20126;-81
2023/09/26 12:59:48;;;;;;;6.68;4.00;;;;;;;;;;4982192;28;20103;-81
2023/09/26 13:02:14;;;;;;;11.57;4.38;;;;;;;;;;4982066;28;20096;-80
2023/09/26 13:04:39;;;;;;;13.73;4.03;;;;;;;;;;4981768;28;20087;-79
2023/09/26 13:07:05;;;;;;;7.95;3.95;;;;;;;;;;4982067;28;20109;-81
2023/09/26 13:09:30;;;;;;;9.20;3.67;;;;;;;;;;4982294;28;20034;-81
2023/09/26 13:11:56;;;;;;;9.65;4.10;;;;;;;;;;4983952;28;20030;-81
2023/09/26 13:14:21;;;;;;;11.80;4.20;;;;;;;;;;4988834;28;20073;-81
2023/09/26 13:16:47;;;;;;;7.78;4.13;;;;;;;;;;4986855;28;20067;-81
2023/09/26 13:19:16;;;;;;;6.88;3.90;;;;;;;;;;4990051;28;20062;-81
2023/09/26 13:21:42;;;;;;;8.10;4.30;;;;;;;;;;4990192;28;20039;-81
2023/09/26 13:24:07;;;;;;;12.95;6.38;;;;;;;;;;4990226;28;20042;-81
2023/09/26 13:26:33;;;;;;;8.65;4.40;;;;;;;;;;4988468;28;20164;-80
2023/09/26 13:28:58;;;;;;;6.15;3.83;;;;;;;;;;4984370;28;20035;-82
2023/09/26 13:31:24;;;;;;;11.73;4.10;;;;;;;;;;4979802;28;20035;-80
2023/09/26 13:33:49;;;;;;;8.30;4.32;;;;;;;;;;4978735;28;20114;-82
2023/09/26 13:36:15;;;;;;;6.97;4.07;;;;;;;;;;4987177;28;20049;-81
2023/09/26 13:38:40;;;;;;;7.68;4.97;;;;;;;;;;4986428;28;20515;-81
2023/09/26 13:41:05;;;;;;;9.35;3.92;;;;;;;;;;4982998;28;20035;-81
2023/09/26 13:43:34;;;;;;;9.75;4.63;;;;;;;;;;4985107;28;20031;-83
2023/09/26 13:46:00;;;;;;;9.70;4.25;;;;;;;;;;4990720;28;20074;-81
2023/09/26 13:48:26;;;;;;;8.60;4.10;;;;;;;;;;4975795;28;20034;-82
2023/09/26 13:50:51;;;;;;;10.93;4.95;;;;;;;;;;4960487;28;20043;-82
2023/09/26 13:53:17;;;;;;;7.40;4.07;;;;;;;;;;4966046;28;20038;-81
2023/09/26 13:55:42;;;;;;;9.05;4.47;;;;;;;;;;4980562;28;20031;-81
2023/09/26 13:58:08;;;;;;;8.48;4.03;;;;;;;;;;4978464;28;20051;-80
2023/09/26 14:00:37;;;;;;;5.38;3.53;;;;;;;;;;4981978;28;20106;-81
2023/09/26 14:03:03;;;;;;;10.25;3.83;;;;;;;;;;4963899;28;20043;-82
2023/09/26 14:05:29;;;;;;;7.53;3.70;;;;;;;;;;4970285;28;20035;-81
2023/09/26 14:07:55;;;;;;;7.28;3.58;;;;;;;;;;4999236;28;20045;-83
2023/09/26 14:10:21;;;;;;;9.82;4.97;;;;;;;;;;4985949;28;20057;-82
2023/09/26 14:12:47;;;;;;;14.10;5.15;;;;;;;;;;5000002;28;20064;-81
2023/09/26 14:15:12;;;;;;;6.65;4.25;;;;;;;;;;4971337;28;20026;-82
2023/09/26 14:17:38;;;;;;;6.43;3.90;;;;;;;;;;4990233;28;20042;-81
2023/09/26 14:20:09;;;;;;;12.02;4.40;;;;;;;;;;4987863;28;20038;-83
2023/09/26 14:22:37;;;;;;;7.28;4.07;;;;;;;;;;4993716;28;20022;-81
2023/09/26 14:25:02;;;;;;;10.25;5.18;;;;;;;;;;4977084;28;20061;-84
2023/09/26 14:27:28;;;;;;;7.85;4.88;;;;;;;;;;4953104;28;20031;-81
2023/09/26 14:30:01;;;;;;;14.13;6.45;;;;;;;;;;4981314;28;20026;-79
2023/09/26 14:32:27;;;;;;;19.92;11.35;;;;;;;;;;4980628;28;20037;-79
2023/09/26 14:34:52;;;;;;;19.00;12.80;;;;;;;;;;4980097;28;20034;-80